Stampa

METAR LIMJ - Aeroporto di Genova Sestri GOA

Genova / Sestri, Italy (LIMJ) 44-25N 008-51E 3M

Oct 17, 2019 - 09:50 AM EDT / 2019.10.17 1350 UTC

Wind: from the SE (130 degrees) at 14 MPH (12 KT):0

Visibility: greater than 7 mile(s):0

Sky conditions: mostly cloudy

Temperature: 64 F (18 C)

Dew Point: 59 F (15 C)

Relative Humidity: 82%

Pressure (altimeter): 30.09 in. Hg (1019 hPa)

ob: LIMJ 171350Z 13012KT 9999 SCT015 BKN035 18/15 Q1019

cycle: 14

 Dati METAR in tempo reale | Fonte: NOAA

Valuta questo articolo

1 1 1 1 1 1 1 1 1 1
Valutazione 0.00 (0 Voti)

hits
891
Ritieni il contenuto di questa pagina incompleto, non attendibile oppure oggetto di altre problematiche? INVIA UNA SEGNALAZIONE Grazie!